createdAt,value
2023-01-10T00:01:29.516Z,10.27
2023-01-10T00:03:56.591Z,7.97
2023-01-10T00:06:23.680Z,8.38
2023-01-10T00:08:50.738Z,7.45
2023-01-10T00:11:36.372Z,8.15
2023-01-10T00:14:03.396Z,9.45
2023-01-10T00:16:30.400Z,13.00
2023-01-10T00:18:57.467Z,13.23
2023-01-10T00:21:24.498Z,10.63
2023-01-10T00:23:51.577Z,9.13
2023-01-10T00:26:18.571Z,9.52
2023-01-10T00:28:45.599Z,15.40
2023-01-10T00:31:13.964Z,6.95
2023-01-10T00:33:41.094Z,8.20
2023-01-10T00:36:08.778Z,16.10
2023-01-10T00:38:36.104Z,11.32
2023-01-10T00:41:24.541Z,9.27
2023-01-10T00:43:57.664Z,8.38
2023-01-10T00:46:25.181Z,7.75
2023-01-10T00:48:53.075Z,8.60
2023-01-10T00:51:20.172Z,10.88
2023-01-10T00:53:47.161Z,7.30
2023-01-10T00:56:14.216Z,12.50
2023-01-10T00:58:41.285Z,6.07
2023-01-10T01:01:08.505Z,7.45
2023-01-10T01:03:35.627Z,7.43
2023-01-10T01:06:07.328Z,9.20
2023-01-10T01:08:34.988Z,9.20
2023-01-10T01:11:02.264Z,6.80
2023-01-10T01:13:29.543Z,7.18
2023-01-10T01:16:00.553Z,11.23
2023-01-10T01:18:28.092Z,8.45
2023-01-10T01:20:57.020Z,5.28
2023-01-10T01:23:24.820Z,6.75
2023-01-10T01:25:53.025Z,9.40
2023-01-10T01:28:21.930Z,14.60
2023-01-10T01:30:49.822Z,9.35
2023-01-10T01:33:18.993Z,5.80
2023-01-10T01:35:47.681Z,9.73
2023-01-10T01:38:15.688Z,8.18
2023-01-10T01:40:43.018Z,7.57
2023-01-10T01:43:29.683Z,10.30
2023-01-10T01:46:00.569Z,7.72
2023-01-10T01:48:38.417Z,9.40
2023-01-10T01:51:26.915Z,4.88
2023-01-10T01:53:59.237Z,13.20
2023-01-10T01:56:39.015Z,13.30
2023-01-10T01:59:14.329Z,5.35
2023-01-10T02:01:44.186Z,9.95
2023-01-10T02:04:16.570Z,6.68
2023-01-10T02:06:46.336Z,9.65
2023-01-10T02:09:32.234Z,12.25
2023-01-10T02:11:59.344Z,8.05
2023-01-10T02:14:27.192Z,6.63
2023-01-10T02:16:54.187Z,10.30
2023-01-10T02:19:39.922Z,8.25
2023-01-10T02:22:25.710Z,9.95
2023-01-10T02:25:13.767Z,11.77
2023-01-10T02:28:12.854Z,7.78
2023-01-10T02:31:21.341Z,9.75
2023-01-10T02:33:51.283Z,7.93
2023-01-10T02:36:49.427Z,5.15
2023-01-10T02:39:32.478Z,11.35
2023-01-10T02:42:12.140Z,8.63
2023-01-10T02:45:08.568Z,8.63
2023-01-10T02:47:40.628Z,6.18
2023-01-10T02:50:41.606Z,10.75
2023-01-10T02:53:22.677Z,6.03
2023-01-10T02:56:22.001Z,11.80
2023-01-10T02:59:14.947Z,12.80
2023-01-10T03:01:57.345Z,13.63
2023-01-10T03:04:40.187Z,9.90
2023-01-10T03:07:10.097Z,8.35
2023-01-10T03:09:55.947Z,7.28
2023-01-10T03:12:48.119Z,8.95
2023-01-10T03:15:19.276Z,10.13
2023-01-10T03:17:52.093Z,12.15
2023-01-10T03:20:21.237Z,7.50
2023-01-10T03:22:48.726Z,21.83
2023-01-10T03:25:18.416Z,7.32
2023-01-10T03:27:52.262Z,13.70
2023-01-10T03:30:44.878Z,10.07
2023-01-10T03:33:14.607Z,9.57
2023-01-10T03:36:17.467Z,11.35
2023-01-10T03:38:51.441Z,10.02
2023-01-10T03:41:30.126Z,10.80
2023-01-10T03:44:43.444Z,8.43
2023-01-10T03:47:48.753Z,11.90
2023-01-10T03:50:22.553Z,13.80
2023-01-10T03:52:49.688Z,10.38
2023-01-10T03:55:25.065Z,7.90
2023-01-10T03:57:52.247Z,8.63
2023-01-10T04:00:19.917Z,12.68
2023-01-10T04:02:47.021Z,10.85
2023-01-10T04:05:14.099Z,12.35
2023-01-10T04:07:41.250Z,5.65
2023-01-10T04:10:09.365Z,9.57
2023-01-10T04:12:36.622Z,14.18
2023-01-10T04:15:03.850Z,8.75
2023-01-10T04:17:30.971Z,9.70
2023-01-10T04:19:58.046Z,9.52
2023-01-10T04:22:25.139Z,9.88
2023-01-10T04:24:52.250Z,8.65
2023-01-10T04:27:19.487Z,15.00
2023-01-10T04:29:47.152Z,7.32
2023-01-10T04:32:14.489Z,18.30
2023-01-10T04:34:41.566Z,11.40
2023-01-10T04:37:08.604Z,9.57
2023-01-10T04:39:35.689Z,11.77
2023-01-10T04:42:02.848Z,12.88
2023-01-10T04:44:29.952Z,15.65
2023-01-10T04:46:56.959Z,11.65
2023-01-10T04:49:24.106Z,11.70
2023-01-10T04:51:51.080Z,13.20
2023-01-10T04:54:21.549Z,12.32
2023-01-10T04:56:52.002Z,10.98
2023-01-10T04:59:19.085Z,14.30
2023-01-10T05:01:46.110Z,11.52
2023-01-10T05:04:13.452Z,9.43
2023-01-10T05:06:40.837Z,13.13
2023-01-10T05:09:09.813Z,13.30
2023-01-10T05:11:37.086Z,13.07
2023-01-10T05:14:04.149Z,12.55
2023-01-10T05:16:31.299Z,13.40
2023-01-10T05:18:58.342Z,10.38
2023-01-10T05:21:25.437Z,9.48
2023-01-10T05:23:52.424Z,13.45
2023-01-10T05:26:23.005Z,13.45
2023-01-10T05:28:50.202Z,15.00
2023-01-10T05:31:19.960Z,10.23
2023-01-10T05:33:51.638Z,10.77
2023-01-10T05:36:19.564Z,8.35
2023-01-10T05:38:47.043Z,20.00
2023-01-10T05:41:14.493Z,11.85
2023-01-10T05:43:41.598Z,13.80
2023-01-10T05:46:09.428Z,10.68
2023-01-10T05:48:36.565Z,9.55
2023-01-10T05:51:04.001Z,21.75
2023-01-10T05:53:31.025Z,8.48
2023-01-10T05:56:00.768Z,9.60
2023-01-10T05:58:29.881Z,9.52
2023-01-10T06:00:58.152Z,12.90
2023-01-10T06:03:26.838Z,11.80
2023-01-10T06:05:55.253Z,13.15
2023-01-10T06:08:23.267Z,14.88
2023-01-10T06:10:50.473Z,13.52
2023-01-10T06:13:18.856Z,10.80
2023-01-10T06:15:46.108Z,7.35
2023-01-10T06:18:13.394Z,10.82
2023-01-10T06:20:41.716Z,14.73
2023-01-10T06:23:09.065Z,9.55
2023-01-10T06:25:40.482Z,10.75
2023-01-10T06:28:13.558Z,10.98
2023-01-10T06:30:45.144Z,9.05
2023-01-10T06:33:12.597Z,13.63
2023-01-10T06:35:39.658Z,8.90
2023-01-10T06:38:06.804Z,14.60
2023-01-10T06:40:33.837Z,16.23
2023-01-10T06:43:00.994Z,9.32
2023-01-10T06:45:29.309Z,11.07
2023-01-10T06:47:56.456Z,10.85
2023-01-10T06:50:23.667Z,11.00
2023-01-10T06:53:01.413Z,13.20
2023-01-10T06:55:29.674Z,13.65
2023-01-10T06:58:03.385Z,10.15
2023-01-10T07:00:32.845Z,11.80
2023-01-10T07:03:01.365Z,8.73
2023-01-10T07:05:29.897Z,11.73
2023-01-10T07:07:58.524Z,23.48
2023-01-10T07:10:25.579Z,11.45
2023-01-10T07:12:55.329Z,9.82
2023-01-10T07:15:22.612Z,11.27
2023-01-10T07:17:49.718Z,17.67
2023-01-10T07:20:17.250Z,8.35
2023-01-10T07:22:44.377Z,22.23
2023-01-10T07:25:11.523Z,16.73
2023-01-10T07:27:40.092Z,15.23
2023-01-10T07:30:08.166Z,10.25
2023-01-10T07:32:35.396Z,14.25
2023-01-10T07:35:02.544Z,14.88
2023-01-10T07:37:30.724Z,12.45
2023-01-10T07:39:57.724Z,16.65
2023-01-10T07:42:25.075Z,10.13
2023-01-10T07:44:52.166Z,13.40
2023-01-10T07:47:19.220Z,15.43
2023-01-10T07:49:46.378Z,16.75
2023-01-10T07:52:13.506Z,12.75
2023-01-10T07:54:40.639Z,17.13
2023-01-10T07:57:07.706Z,13.13
2023-01-10T07:59:34.743Z,14.00
2023-01-10T08:02:01.810Z,8.77
2023-01-10T08:04:28.981Z,16.23
2023-01-10T08:06:56.077Z,16.67
2023-01-10T08:09:23.741Z,11.18
2023-01-10T08:11:51.783Z,21.33
2023-01-10T08:14:18.948Z,9.32
2023-01-10T08:16:46.098Z,12.00
2023-01-10T08:19:16.975Z,13.43
2023-01-10T08:21:45.802Z,8.98
2023-01-10T08:24:12.863Z,10.25
2023-01-10T08:26:40.033Z,10.45
2023-01-10T08:29:08.232Z,10.30
2023-01-10T08:31:35.414Z,13.75
2023-01-10T08:34:02.717Z,16.15
2023-01-10T08:36:30.246Z,12.27
2023-01-10T08:38:57.458Z,10.23
2023-01-10T08:41:24.726Z,15.95
2023-01-10T08:43:52.871Z,13.32
2023-01-10T08:46:20.578Z,12.77
2023-01-10T08:48:50.390Z,18.02
2023-01-10T08:51:18.011Z,14.15
2023-01-10T08:53:45.104Z,13.13
2023-01-10T08:56:12.185Z,12.45
2023-01-10T08:58:39.293Z,18.60
2023-01-10T09:01:12.096Z,10.48
2023-01-10T09:03:40.061Z,16.30
2023-01-10T09:06:08.674Z,12.07
2023-01-10T09:08:37.149Z,16.83
2023-01-10T09:11:05.421Z,14.85
2023-01-10T09:13:33.334Z,18.00
2023-01-10T09:16:00.799Z,13.82
2023-01-10T09:18:27.957Z,14.52
2023-01-10T09:20:55.197Z,20.30
2023-01-10T09:23:23.508Z,22.75
2023-01-10T09:25:53.659Z,17.88
2023-01-10T09:28:22.522Z,12.32
2023-01-10T09:30:49.636Z,22.05
2023-01-10T09:33:16.992Z,16.20
2023-01-10T09:35:44.826Z,17.40
2023-01-10T09:38:14.982Z,18.23
2023-01-10T09:40:47.871Z,36.00
2023-01-10T09:43:46.459Z,10.70
2023-01-10T09:46:35.592Z,18.55
2023-01-10T09:49:08.418Z,21.88
2023-01-10T09:51:41.648Z,16.70
2023-01-10T09:54:33.415Z,15.05
2023-01-10T09:57:03.103Z,18.45
2023-01-10T09:59:41.615Z,17.92
2023-01-10T10:02:36.874Z,18.23
2023-01-10T10:05:18.726Z,14.13
2023-01-10T10:07:47.274Z,23.05
2023-01-10T10:10:25.017Z,18.75
2023-01-10T10:13:26.880Z,20.70
2023-01-10T10:16:25.825Z,11.63
2023-01-10T10:19:11.700Z,13.77
2023-01-10T10:21:38.745Z,17.08
2023-01-10T10:24:32.264Z,15.48
2023-01-10T10:27:22.564Z,16.60
2023-01-10T10:30:10.357Z,15.85
2023-01-10T10:33:00.157Z,14.80
2023-01-10T10:36:02.031Z,26.08
2023-01-10T10:38:37.570Z,14.35
2023-01-10T10:41:05.522Z,16.75
2023-01-10T10:43:36.261Z,26.52
2023-01-10T10:46:09.648Z,20.27
2023-01-10T10:48:50.944Z,13.90
2023-01-10T10:51:34.391Z,21.48
2023-01-10T10:54:01.681Z,15.90
2023-01-10T10:56:29.947Z,16.95
2023-01-10T10:58:59.860Z,15.90
2023-01-10T11:01:27.330Z,12.48
2023-01-10T11:03:59.273Z,13.25
2023-01-10T11:06:29.215Z,16.15
2023-01-10T11:09:00.160Z,16.00
2023-01-10T11:11:39.383Z,7.68
2023-01-10T11:14:08.794Z,21.77
2023-01-10T11:16:39.915Z,16.80
2023-01-10T11:19:18.777Z,16.30
2023-01-10T11:22:04.176Z,14.85
2023-01-10T11:24:38.413Z,17.65
2023-01-10T11:30:03.115Z,12.32
2023-01-10T11:32:30.136Z,17.80
2023-01-10T11:35:00.181Z,18.65
2023-01-10T11:37:32.952Z,11.07
2023-01-10T11:40:24.237Z,8.48
2023-01-10T11:42:54.859Z,14.43
2023-01-10T11:45:29.598Z,9.98
2023-01-10T11:48:34.247Z,6.40
2023-01-10T11:51:19.405Z,17.73
2023-01-10T11:53:47.479Z,14.23
2023-01-10T11:56:25.085Z,12.27
2023-01-10T11:58:53.620Z,9.45
2023-01-10T12:01:40.997Z,8.32
2023-01-10T12:04:18.025Z,20.52
2023-01-10T12:06:53.665Z,8.68
2023-01-10T12:09:45.370Z,8.85
2023-01-10T12:12:19.970Z,7.88
2023-01-10T12:14:48.174Z,8.48
2023-01-10T12:17:38.013Z,9.38
2023-01-10T12:20:12.945Z,9.40
2023-01-10T12:22:43.168Z,9.95
2023-01-10T12:25:24.256Z,5.78
2023-01-10T12:27:51.701Z,10.18
2023-01-10T12:30:39.715Z,10.13
2023-01-10T12:33:13.610Z,9.40
2023-01-10T12:35:52.497Z,9.30
2023-01-10T12:38:52.291Z,7.07
2023-01-10T12:42:11.085Z,16.88
2023-01-10T12:44:44.915Z,10.02
2023-01-10T12:47:21.163Z,7.93
2023-01-10T12:49:58.971Z,10.20
2023-01-10T12:52:52.593Z,10.93
2023-01-10T12:55:22.790Z,11.05
2023-01-10T12:57:54.378Z,11.68
2023-01-10T13:00:37.602Z,13.30
2023-01-10T13:03:19.339Z,15.68
2023-01-10T13:05:49.800Z,7.93
2023-01-10T13:08:19.570Z,7.00
2023-01-10T13:10:50.056Z,8.88
2023-01-10T13:13:36.407Z,13.00
2023-01-10T13:16:30.010Z,12.43
2023-01-10T13:19:11.931Z,8.05
2023-01-10T13:21:41.320Z,12.63
2023-01-10T13:24:28.825Z,17.60
2023-01-10T13:27:02.414Z,9.95
2023-01-10T13:29:39.685Z,12.43
2023-01-10T13:32:36.578Z,15.88
2023-01-10T13:35:17.338Z,9.90
2023-01-10T13:37:52.594Z,5.57
2023-01-10T13:40:28.476Z,7.88
2023-01-10T13:43:37.024Z,14.18
2023-01-10T13:46:24.092Z,9.52
2023-01-10T13:48:51.283Z,12.82
2023-01-10T13:51:22.830Z,8.32
2023-01-10T13:53:52.060Z,11.45
2023-01-10T13:56:35.882Z,10.23
2023-01-10T13:59:23.992Z,10.27
2023-01-10T14:02:16.705Z,10.80
2023-01-10T14:04:50.985Z,9.68
2023-01-10T14:09:49.912Z,19.30
2023-01-10T14:12:29.268Z,20.10
2023-01-10T14:15:27.405Z,10.70
2023-01-10T14:18:05.084Z,18.38
2023-01-10T14:20:35.224Z,14.85
2023-01-10T14:23:15.557Z,11.88
2023-01-10T14:25:44.113Z,15.43
2023-01-10T14:28:27.638Z,10.45
2023-01-10T14:31:18.218Z,11.30
2023-01-10T14:33:46.831Z,16.35
2023-01-10T14:36:22.025Z,10.18
2023-01-10T14:38:52.988Z,18.30
2023-01-10T14:41:36.161Z,14.27
2023-01-10T14:44:35.139Z,8.05
2023-01-10T14:47:04.798Z,11.00
2023-01-10T14:49:48.618Z,14.43
2023-01-10T14:52:26.653Z,14.25
2023-01-10T14:55:11.290Z,7.50
2023-01-10T14:57:39.283Z,9.38
2023-01-10T15:00:17.897Z,9.52
2023-01-10T15:02:49.615Z,6.53
2023-01-10T15:05:21.298Z,9.73
2023-01-10T15:07:49.570Z,9.82
2023-01-10T15:10:40.964Z,10.93
2023-01-10T15:13:08.836Z,6.43
2023-01-10T15:15:38.634Z,13.32
2023-01-10T15:18:36.499Z,10.13
2023-01-10T15:21:04.464Z,11.40
2023-01-10T15:23:42.143Z,14.38
2023-01-10T15:26:26.487Z,12.07
2023-01-10T15:29:19.458Z,13.30
2023-01-10T15:31:46.793Z,9.10
2023-01-10T15:34:29.468Z,10.75
2023-01-10T15:37:00.227Z,12.20
2023-01-10T15:39:30.986Z,16.15
2023-01-10T15:42:01.299Z,8.90
2023-01-10T15:44:38.485Z,16.65
2023-01-10T15:47:06.889Z,12.27
2023-01-10T15:49:34.144Z,10.07
2023-01-10T15:52:01.311Z,12.93
2023-01-10T15:54:30.805Z,12.45
2023-01-10T15:57:19.062Z,9.88
2023-01-10T15:59:52.509Z,12.02
2023-01-10T16:02:31.860Z,17.67
2023-01-10T16:05:11.541Z,9.82
2023-01-10T16:07:46.844Z,10.18
2023-01-10T16:10:26.484Z,7.25
2023-01-10T16:13:19.812Z,13.02
2023-01-10T16:15:46.900Z,12.98
2023-01-10T16:18:13.938Z,11.30
2023-01-10T16:20:46.250Z,17.25
2023-01-10T16:23:20.376Z,11.35
2023-01-10T16:25:54.268Z,14.38
2023-01-10T16:28:22.386Z,10.02
2023-01-10T16:30:49.674Z,15.05
2023-01-10T16:33:17.941Z,14.80
2023-01-10T16:35:47.170Z,16.77
2023-01-10T16:38:15.857Z,10.77
2023-01-10T16:40:47.574Z,13.38
2023-01-10T16:43:25.822Z,15.25
2023-01-10T16:46:00.948Z,10.90
2023-01-10T16:48:30.212Z,18.58
2023-01-10T16:51:13.976Z,18.48
2023-01-10T16:53:43.164Z,17.77
2023-01-10T16:56:16.382Z,11.85
2023-01-10T16:58:43.376Z,14.75
2023-01-10T17:01:24.484Z,11.93
2023-01-10T17:03:53.275Z,10.90
2023-01-10T17:06:21.802Z,14.10
2023-01-10T17:08:49.823Z,15.23
2023-01-10T17:11:21.795Z,16.02
2023-01-10T17:13:49.283Z,14.93
2023-01-10T17:16:19.456Z,8.85
2023-01-10T17:18:47.629Z,9.57
2023-01-10T17:21:20.365Z,15.48
2023-01-10T17:23:48.360Z,11.27
2023-01-10T17:26:17.638Z,7.00
2023-01-10T17:28:49.779Z,13.65
2023-01-10T17:31:19.827Z,11.73
2023-01-10T17:33:49.133Z,12.95
2023-01-10T17:36:19.027Z,7.18
2023-01-10T17:38:46.817Z,12.95
2023-01-10T17:41:13.952Z,6.47
2023-01-10T17:43:41.013Z,10.23
2023-01-10T17:46:08.156Z,11.70
2023-01-10T17:48:36.103Z,11.88
2023-01-10T17:51:04.504Z,18.83
2023-01-10T17:53:31.625Z,17.08
2023-01-10T17:56:00.285Z,11.88
2023-01-10T17:58:28.373Z,12.77
2023-01-10T18:00:55.616Z,8.02
2023-01-10T18:03:23.171Z,10.85
2023-01-10T18:05:52.466Z,15.07
2023-01-10T18:08:20.356Z,9.50
2023-01-10T18:10:47.894Z,12.82
2023-01-10T18:13:17.109Z,15.23
2023-01-10T18:15:46.812Z,14.15
2023-01-10T18:18:14.216Z,13.93
2023-01-10T18:20:42.267Z,13.57
2023-01-10T18:23:23.159Z,10.93
2023-01-10T18:25:58.162Z,12.82
2023-01-10T18:28:40.069Z,14.30
2023-01-10T18:31:09.951Z,10.45
2023-01-10T18:33:37.168Z,13.77
2023-01-10T18:36:06.243Z,11.75
2023-01-10T18:38:34.604Z,10.70
2023-01-10T18:41:02.077Z,25.85
2023-01-10T18:43:30.073Z,14.65
2023-01-10T18:46:06.448Z,32.25
2023-01-10T18:48:33.665Z,13.90
2023-01-10T18:51:02.060Z,12.93
2023-01-10T18:53:31.876Z,11.77
2023-01-10T18:56:02.057Z,15.95
2023-01-10T18:58:33.048Z,13.27
2023-01-10T19:01:15.373Z,12.13
2023-01-10T19:03:43.197Z,10.32
2023-01-10T19:06:14.690Z,16.95
2023-01-10T19:08:42.782Z,8.00
2023-01-10T19:11:14.573Z,13.93
2023-01-10T19:13:43.504Z,8.90
2023-01-10T19:16:21.150Z,11.23
2023-01-10T19:18:54.585Z,14.85
2023-01-10T19:21:22.579Z,10.30
2023-01-10T19:23:55.175Z,12.00
2023-01-10T19:26:23.243Z,7.40
2023-01-10T19:28:50.413Z,10.90
2023-01-10T19:31:20.146Z,8.90
2023-01-10T19:33:48.301Z,7.97
2023-01-10T19:36:16.965Z,8.02
2023-01-10T19:38:44.829Z,6.22
2023-01-10T19:41:14.216Z,11.00
2023-01-10T19:43:41.326Z,8.55
2023-01-10T19:46:10.503Z,6.75
2023-01-10T19:48:38.572Z,4.10
2023-01-10T19:51:11.500Z,7.88
2023-01-10T19:53:44.368Z,8.35
2023-01-10T19:56:18.472Z,5.93
2023-01-10T20:01:16.036Z,3.42
2023-01-10T20:03:46.738Z,3.67
2023-01-10T20:06:18.005Z,5.75
2023-01-10T20:08:46.564Z,3.55
2023-01-10T20:11:14.598Z,3.65
2023-01-10T20:13:45.198Z,6.95
2023-01-10T20:16:13.941Z,4.25
2023-01-10T20:18:41.584Z,3.78
2023-01-10T20:21:11.295Z,3.55
2023-01-10T20:23:39.785Z,3.38
2023-01-10T20:26:12.892Z,5.18
2023-01-10T20:28:42.080Z,5.15
2023-01-10T20:31:19.883Z,2.95
2023-01-10T20:33:47.039Z,5.03
2023-01-10T20:36:16.679Z,1.88
2023-01-10T20:38:43.909Z,3.88
2023-01-10T20:41:12.615Z,3.47
2023-01-10T20:43:40.131Z,6.68
2023-01-10T20:46:11.667Z,4.28
2023-01-10T20:48:40.812Z,2.67
2023-01-10T20:51:12.506Z,5.72
2023-01-10T20:53:39.657Z,3.00
2023-01-10T20:56:10.784Z,3.00
2023-01-10T20:58:39.735Z,3.92
2023-01-10T21:01:08.073Z,3.65
2023-01-10T21:03:35.174Z,3.13
2023-01-10T21:06:02.850Z,3.65
2023-01-10T21:08:30.353Z,1.90
2023-01-10T21:10:58.325Z,3.03
2023-01-10T21:13:26.689Z,2.25
2023-01-10T21:15:58.201Z,2.42
2023-01-10T21:18:30.386Z,1.90
2023-01-10T21:21:00.121Z,3.20
2023-01-10T21:23:29.022Z,1.95
2023-01-10T21:26:03.248Z,2.42
2023-01-10T21:31:00.288Z,3.30
2023-01-10T21:33:27.421Z,5.40
2023-01-10T21:35:57.876Z,5.07
2023-01-10T21:38:28.919Z,2.72
2023-01-10T21:40:57.799Z,3.08
2023-01-10T21:43:24.824Z,3.75
2023-01-10T21:45:59.263Z,2.80
2023-01-10T21:48:26.383Z,4.00
2023-01-10T21:50:54.914Z,2.20
2023-01-10T21:53:22.871Z,2.03
2023-01-10T21:55:49.995Z,3.88
2023-01-10T21:58:17.150Z,1.75
2023-01-10T22:00:44.198Z,2.40
2023-01-10T22:03:11.251Z,3.92
2023-01-10T22:05:38.261Z,3.30
2023-01-10T22:08:06.400Z,2.08
2023-01-10T22:10:33.483Z,2.75
2023-01-10T22:13:00.457Z,3.03
2023-01-10T22:15:27.509Z,2.95
2023-01-10T22:17:54.542Z,1.85
2023-01-10T22:20:21.704Z,2.28
2023-01-10T22:22:48.755Z,3.17
2023-01-10T22:25:15.934Z,3.38
2023-01-10T22:27:45.097Z,2.70
2023-01-10T22:30:14.682Z,1.58
2023-01-10T22:32:41.728Z,1.90
2023-01-10T22:35:09.090Z,1.83
2023-01-10T22:37:36.164Z,1.88
2023-01-10T22:40:03.243Z,3.00
2023-01-10T22:42:30.227Z,2.28
2023-01-10T22:44:57.271Z,3.08
2023-01-10T22:47:24.261Z,1.92
2023-01-10T22:49:51.294Z,1.38
2023-01-10T22:52:18.359Z,1.42
2023-01-10T22:54:45.414Z,2.95
2023-01-10T22:57:14.865Z,2.60
2023-01-10T22:59:41.901Z,1.88
2023-01-10T23:02:09.285Z,1.02
2023-01-10T23:04:36.508Z,0.75
2023-01-10T23:07:03.640Z,1.40
2023-01-10T23:09:31.036Z,1.98
2023-01-10T23:11:58.159Z,1.45
2023-01-10T23:14:25.135Z,1.08
2023-01-10T23:16:52.227Z,0.95
2023-01-10T23:19:19.300Z,2.08
2023-01-10T23:21:46.387Z,1.75
2023-01-10T23:24:16.803Z,1.50
2023-01-10T23:26:43.885Z,1.13
2023-01-10T23:29:10.891Z,1.63
2023-01-10T23:31:38.013Z,1.50
2023-01-10T23:34:05.095Z,1.45
2023-01-10T23:36:32.111Z,1.63
2023-01-10T23:38:59.192Z,1.85
2023-01-10T23:41:26.171Z,2.35
2023-01-10T23:43:53.703Z,2.20
2023-01-10T23:46:20.790Z,2.47
2023-01-10T23:48:48.559Z,1.45
2023-01-10T23:51:16.106Z,1.35
2023-01-10T23:53:43.167Z,1.45
2023-01-10T23:56:12.934Z,1.42
2023-01-10T23:58:41.456Z,1.27
